ADDS METAR Data INFO
IDs: Format: Raw Decoded Include TAF

Data at: 0103 UTC 24 Jun 2018

PPIT 240056Z AUTO 25005KT 10SM BKN040 OVC047 12/05 A3012 RMK AO2 SLP199 T01170050 TSNO
PPIT 232211Z AUTO 25004KT 10SM FEW028 OVC048 11/06 A3012 RMK AO2 TSNO
PPIT 232156Z AUTO 26003KT 10SM BKN028 OVC048 11/06 A3013 RMK AO2 SLP201 T01110056 TSNO
PPIT 232128Z AUTO 00000KT 8SM BKN028 BKN040 OVC049 11/06 A3012 RMK AO2 TSNO
PPIT 232056Z AUTO VRB03KT 10SM SCT029 OVC039 11/06 A3013 RMK AO2 SLP201 T01110056 56001 TSNO
PPIT 232006Z AUTO 13004KT 10SM FEW025 OVC050 11/06 A3013 RMK AO2 TSNO
PPIT 231956Z AUTO 14004KT 10SM BKN025 BKN033 OVC050 11/06 A3013 RMK AO2 SLP201 T01110056 TSNO
PPIT 231951Z AUTO 12005KT 10SM SCT025 BKN033 OVC050 11/06 A3013 RMK AO2 TSNO
PPIT 231856Z AUTO 11005KT 10SM BKN023 OVC030 11/06 A3013 RMK AO2 SLP202 T01060056 TSNO
PPIT 231848Z AUTO 11004KT 10SM BKN023 OVC050 11/06 A3013 RMK AO2 TSNO
PPIT 231756Z AUTO 00000KT 10SM OVC048 10/06 A3012 RMK AO2 SLP199 T01000061 10100 20083 50003 TSNO
PPIT 231656Z AUTO 18005KT 10SM OVC048 09/06 A3012 RMK AO2 SLP201 T00940056 TSNO
PPIT 231556Z AUTO 20003KT 10SM OVC048 09/06 A3012 RMK AO2 SLP199 T00940056 TSNO
PPIT 231456Z AUTO 19005KT 10SM OVC048 09/06 A3011 RMK AO2 SLP196 T00890061 51000 TSNO
PPIT 231356Z AUTO 18004KT 10SM OVC050 09/06 A3011 RMK AO2 SLP196 T00890056 TSNO
PPIT 231256Z AUTO 17005KT 10SM OVC050 09/07 A3011 RMK AO2 SLP197 T00890067 TSNO
PPIT 231156Z AUTO 18005KT 10SM OVC055 09/07 A3011 RMK AO2 SLP196 T00890067 10111 20083 51009 TSNO
PPIT 231056Z AUTO 20005KT 10SM OVC055 09/06 A3010 RMK AO2 SLP193 T00890061 TSNO
PPIT 230956Z AUTO 21005KT 10SM FEW048 OVC060 09/06 A3009 RMK AO2 SLP190 T00890061 TSNO
PPIT 230856Z AUTO 19004KT 10SM FEW049 09/06 A3008 RMK AO2 SLP186 T00940061 401280072 53014 TSNO
PPIT 230756Z AUTO 20006KT 10SM OVC055 11/06 A3006 RMK AO2 SLP180 T01060056 TSNO
PPIT 230656Z AUTO 22008KT 10SM FEW034 OVC060 11/06 A3005 RMK AO2 SLP176 T01110056 TSNO
PPIT 230556Z AUTO 21008KT 10SM FEW032 SCT039 OVC055 11/06 A3004 RMK AO2 SLP173 60000 T01110056 10128 20106 53005 TSNO
PPIT 230456Z AUTO 21010KT 10SM BKN033 OVC050 11/06 A3003 RMK AO2 SLP170 T01110056 TSNO
PPIT 230356Z AUTO 23010KT 10SM FEW029 BKN050 OVC055 12/06 A3003 RMK AO2 RAE13 SLP168 P0000 T01170061 TSNO
PPIT 230256Z AUTO 21014G18KT 10SM -RA SCT030 BKN036 OVC055 11/07 A3003 RMK AO2 RAB50 SLP168 P0000 60000 T01060067 53007 TSNO
PPIT 230156Z AUTO 23012G19KT 10SM OVC055 12/06 A3002 RMK AO2 SLP165 T01170061 TSNO
PPIT 222356Z AUTO 19010KT 10SM FEW045 OVC060 12/06 A3000 RMK AO2 SLP160 60000 T01220056 10122 20089 53009 TSNO
PPIT 222256Z AUTO 21013G17KT 10SM SCT032 OVC050 12/06 A3000 RMK AO2 SLP158 T01220061 TSNO
PPIT 222156Z AUTO 20013KT 10SM OVC050 12/07 A2998 RMK AO2 SLP153 T01170067 TSNO
PPIT 222109Z AUTO 20014KT 10SM SCT022 OVC050 11/07 A2998 RMK AO2 TSNO
PPIT 222056Z AUTO 20012KT 10SM BKN022 OVC050 11/07 A2998 RMK AO2 SLP151 60000 T01060067 53016 TSNO
PPIT 221956Z AUTO 20015KT 10SM SCT016 OVC041 11/07 A2996 RMK AO2 RAB1858E27 SLP144 P0000 T01060072 TSNO
PPIT 221856Z AUTO 20011KT 10SM FEW013 BKN034 OVC041 09/07 A2995 RMK AO2 RAB1758E55 SLP140 P0000 T00940072 TSNO
PPIT 221828Z AUTO 20009KT 10SM -RA SCT015 BKN030 OVC038 09/08 A2994 RMK AO2 RAB1758 P0000 TSNO
PPIT 221807Z AUTO 21011KT 10SM -RA BKN015 OVC020 09/08 A2993 RMK AO2 RAB1758 P0000 TSNO
PPIT 221756Z AUTO 21013KT 10SM BKN013 BKN024 OVC044 10/07 A2993 RMK AO2 SLP135 T01000072 10100 20072 51011 TSNO
PPIT 221754Z AUTO 17012KT 10SM SCT013 BKN024 OVC044 10/07 A2993 RMK AO2 TSNO
PPIT 221747Z AUTO 17011KT 10SM BKN013 OVC044 10/08 A2992 RMK AO2 TSNO
PPIT 221733Z AUTO 17013KT 10SM SCT011 OVC044 09/07 A2992 RMK AO2 TSNO
PPIT 221656Z AUTO 16013KT 10SM BKN013 OVC035 09/08 A2991 RMK AO2 SLP129 T00940078 TSNO
PPIT 221629Z AUTO 17012KT 10SM SCT015 BKN035 OVC043 09/07 A2990 RMK AO2 TSNO
PPIT 221620Z AUTO 17013KT 10SM BKN015 BKN035 OVC042 09/07 A2990 RMK AO2 TSNO
PPIT 221556Z AUTO 18012KT 10SM OVC036 09/07 A2990 RMK AO2 SLP124 T00890072 TSNO
PPIT 221456Z AUTO 17011KT 10SM CLR 08/06 A2988 RMK AO2 SLP119 T00780056 51011 TSNO
PPIT 221356Z AUTO 16011KT 10SM CLR 08/06 A2987 RMK AO2 SLP116 T00780061 TSNO